createdAt,value
2022-09-23T00:01:00.432Z,11.49
2022-09-23T00:03:29.248Z,11.50
2022-09-23T00:06:04.678Z,11.67
2022-09-23T00:08:31.582Z,11.45
2022-09-23T00:11:04.546Z,11.51
2022-09-23T00:13:31.061Z,11.40
2022-09-23T00:15:57.595Z,11.39
2022-09-23T00:18:24.132Z,11.43
2022-09-23T00:20:50.738Z,11.50
2022-09-23T00:23:17.260Z,11.36
2022-09-23T00:25:43.733Z,11.37
2022-09-23T00:28:10.234Z,11.37
2022-09-23T00:30:36.901Z,11.28
2022-09-23T00:33:03.530Z,11.21
2022-09-23T00:35:30.008Z,11.29
2022-09-23T00:37:56.519Z,11.23
2022-09-23T00:40:23.101Z,11.11
2022-09-23T00:42:52.261Z,10.95
2022-09-23T00:45:19.541Z,10.88
2022-09-23T00:47:48.202Z,10.95
2022-09-23T00:50:24.688Z,10.89
2022-09-23T00:52:54.313Z,11.08
2022-09-23T00:55:30.655Z,11.30
2022-09-23T00:58:00.803Z,11.08
2022-09-23T01:00:27.366Z,10.85
2022-09-23T01:02:54.401Z,10.66
2022-09-23T01:05:21.574Z,10.54
2022-09-23T01:07:49.756Z,10.52
2022-09-23T01:10:18.565Z,10.66
2022-09-23T01:13:01.480Z,10.82
2022-09-23T01:15:42.649Z,10.85
2022-09-23T01:18:24.903Z,10.76
2022-09-23T01:21:12.517Z,10.90
2022-09-23T01:23:57.358Z,11.13
2022-09-23T01:26:35.878Z,11.11
2022-09-23T01:29:29.475Z,10.94
2022-09-23T01:32:04.794Z,10.64
2022-09-23T01:34:52.858Z,10.47
2022-09-23T01:37:53.400Z,10.62
2022-09-23T01:40:26.366Z,10.60
2022-09-23T01:43:15.683Z,10.66
2022-09-23T01:45:46.730Z,10.65
2022-09-23T01:48:31.855Z,10.57
2022-09-23T01:51:26.792Z,10.49
2022-09-23T01:54:15.992Z,10.51
2022-09-23T01:56:52.957Z,10.55
2022-09-23T01:59:39.616Z,10.64
2022-09-23T02:02:23.371Z,10.68
2022-09-23T02:05:05.840Z,10.58
2022-09-23T02:07:38.494Z,10.45
2022-09-23T02:10:24.050Z,10.58
2022-09-23T02:12:54.935Z,10.65
2022-09-23T02:15:26.945Z,10.55
2022-09-23T02:18:00.074Z,10.48
2022-09-23T02:20:30.939Z,10.58
2022-09-23T02:23:13.110Z,10.61
2022-09-23T02:26:08.851Z,10.55
2022-09-23T02:29:04.582Z,10.49
2022-09-23T02:31:43.781Z,10.38
2022-09-23T02:34:23.062Z,10.64
2022-09-23T02:37:03.101Z,10.60
2022-09-23T02:39:39.658Z,10.55
2022-09-23T02:42:10.398Z,10.35
2022-09-23T02:44:37.011Z,10.52
2022-09-23T02:47:03.876Z,10.66
2022-09-23T02:49:32.107Z,10.57
2022-09-23T02:52:04.888Z,10.51
2022-09-23T02:54:36.461Z,10.47
2022-09-23T02:57:06.605Z,10.64
2022-09-23T02:59:35.403Z,10.74
2022-09-23T03:02:17.152Z,10.61
2022-09-23T03:05:06.539Z,10.76
2022-09-23T03:07:49.992Z,10.58
2022-09-23T03:10:25.233Z,10.63
2022-09-23T03:12:59.524Z,10.55
2022-09-23T03:15:32.013Z,10.67
2022-09-23T03:18:16.304Z,10.70
2022-09-23T03:20:54.457Z,10.60
2022-09-23T03:23:29.033Z,10.59
2022-09-23T03:25:58.248Z,10.49
2022-09-23T03:28:27.081Z,10.56
2022-09-23T03:30:55.977Z,10.53
2022-09-23T03:33:28.629Z,10.56
2022-09-23T03:36:22.568Z,10.53
2022-09-23T03:38:52.738Z,10.50
2022-09-23T03:41:33.127Z,10.53
2022-09-23T03:44:00.155Z,10.62
2022-09-23T03:46:28.589Z,10.56
2022-09-23T03:49:04.262Z,10.56
2022-09-23T03:51:30.969Z,10.43
2022-09-23T03:53:57.540Z,10.56
2022-09-23T03:56:24.316Z,10.60
2022-09-23T03:58:51.075Z,10.63
2022-09-23T04:01:17.671Z,10.64
2022-09-23T04:03:44.224Z,10.44
2022-09-23T04:06:10.824Z,10.62
2022-09-23T04:08:37.783Z,10.57
2022-09-23T04:11:04.825Z,10.41
2022-09-23T04:13:32.088Z,10.56
2022-09-23T04:15:58.835Z,10.77
2022-09-23T04:18:25.859Z,10.73
2022-09-23T04:20:56.428Z,10.71
2022-09-23T04:23:24.663Z,10.64
2022-09-23T04:25:51.203Z,10.47
2022-09-23T04:28:17.691Z,10.64
2022-09-23T04:30:46.071Z,10.55
2022-09-23T04:33:13.626Z,10.67
2022-09-23T04:35:43.100Z,10.66
2022-09-23T04:38:12.172Z,10.84
2022-09-23T04:40:39.214Z,10.90
2022-09-23T04:43:07.808Z,10.68
2022-09-23T04:45:36.156Z,10.65
2022-09-23T04:48:03.176Z,10.74
2022-09-23T04:50:29.707Z,10.73
2022-09-23T04:52:56.227Z,10.79
2022-09-23T04:55:22.787Z,10.61
2022-09-23T04:57:49.309Z,10.75
2022-09-23T05:00:16.085Z,10.59
2022-09-23T05:02:46.870Z,10.61
2022-09-23T05:05:15.764Z,10.71
2022-09-23T05:07:43.136Z,10.54
2022-09-23T05:10:10.215Z,10.62
2022-09-23T05:12:36.777Z,10.52
2022-09-23T05:15:03.520Z,10.58
2022-09-23T05:17:30.306Z,10.52
2022-09-23T05:19:58.330Z,10.40
2022-09-23T05:22:26.622Z,10.37
2022-09-23T05:24:53.914Z,10.39
2022-09-23T05:27:21.128Z,10.38
2022-09-23T05:29:48.867Z,10.46
2022-09-23T05:32:15.466Z,10.45
2022-09-23T05:34:42.126Z,10.45
2022-09-23T05:37:08.867Z,10.36
2022-09-23T05:39:35.453Z,10.39
2022-09-23T05:42:02.266Z,10.46
2022-09-23T05:44:29.074Z,10.40
2022-09-23T05:46:55.702Z,10.25
2022-09-23T05:49:33.042Z,10.38
2022-09-23T05:52:08.954Z,10.40
2022-09-23T05:54:35.940Z,10.51
2022-09-23T05:57:05.013Z,10.52
2022-09-23T05:59:31.922Z,10.58
2022-09-23T06:01:59.148Z,10.46
2022-09-23T06:04:25.765Z,10.64
2022-09-23T06:06:53.170Z,10.74
2022-09-23T06:09:19.756Z,10.62
2022-09-23T06:11:46.827Z,10.62
2022-09-23T06:14:14.975Z,10.45
2022-09-23T06:16:41.751Z,10.47
2022-09-23T06:19:08.384Z,10.54
2022-09-23T06:21:37.485Z,10.68
2022-09-23T06:24:05.318Z,10.79
2022-09-23T06:26:35.180Z,11.02
2022-09-23T06:29:02.936Z,10.79
2022-09-23T06:31:29.604Z,10.85
2022-09-23T06:34:11.794Z,11.00
2022-09-23T06:36:43.831Z,11.02
2022-09-23T06:39:11.675Z,11.20
2022-09-23T06:41:39.314Z,11.27
2022-09-23T06:44:06.081Z,11.11
2022-09-23T06:46:32.757Z,11.11
2022-09-23T06:48:59.385Z,11.17
2022-09-23T06:51:25.945Z,11.48
2022-09-23T06:53:53.074Z,11.33
2022-09-23T06:56:22.024Z,11.40
2022-09-23T06:58:48.808Z,11.37
2022-09-23T07:01:17.394Z,11.64
2022-09-23T07:03:45.698Z,11.68
2022-09-23T07:06:12.298Z,11.62
2022-09-23T07:08:40.435Z,11.67
2022-09-23T07:11:07.396Z,11.80
2022-09-23T07:13:34.668Z,11.75
2022-09-23T07:16:02.261Z,11.72
2022-09-23T07:18:36.944Z,11.99
2022-09-23T07:21:17.358Z,11.92
2022-09-23T07:23:46.042Z,11.88
2022-09-23T07:26:13.623Z,12.03
2022-09-23T07:28:40.615Z,12.04
2022-09-23T07:31:13.244Z,12.10
2022-09-23T07:33:44.188Z,12.33
2022-09-23T07:36:18.598Z,12.12
2022-09-23T07:38:47.400Z,12.35
2022-09-23T07:41:16.933Z,12.47
2022-09-23T07:43:44.617Z,12.51
2022-09-23T07:46:16.865Z,12.45
2022-09-23T07:48:44.551Z,12.72
2022-09-23T07:51:20.468Z,12.87
2022-09-23T07:53:49.248Z,13.06
2022-09-23T07:56:19.058Z,13.24
2022-09-23T07:59:05.399Z,13.18
2022-09-23T08:01:38.497Z,13.42
2022-09-23T08:04:19.308Z,13.53
2022-09-23T08:06:49.024Z,13.47
2022-09-23T08:09:19.982Z,13.39
2022-09-23T08:11:46.994Z,13.56
2022-09-23T08:14:15.453Z,13.32
2022-09-23T08:16:42.443Z,13.20
2022-09-23T08:19:09.001Z,13.33
2022-09-23T08:21:35.828Z,13.40
2022-09-23T08:24:02.592Z,13.58
2022-09-23T08:26:29.250Z,13.69
2022-09-23T08:28:56.533Z,13.66
2022-09-23T08:31:23.686Z,13.82
2022-09-23T08:33:57.626Z,13.94
2022-09-23T08:36:25.522Z,13.88
2022-09-23T08:38:52.364Z,14.19
2022-09-23T08:41:48.320Z,14.29
2022-09-23T08:44:32.939Z,14.68
2022-09-23T08:47:17.795Z,14.54
2022-09-23T08:50:06.605Z,14.86
2022-09-23T08:52:39.726Z,15.09
2022-09-23T08:55:11.530Z,15.12
2022-09-23T08:58:24.528Z,15.45
2022-09-23T09:01:15.525Z,14.97
2022-09-23T09:03:47.450Z,15.11
2022-09-23T09:06:23.142Z,15.33
2022-09-23T09:09:00.949Z,15.17
2022-09-23T09:11:34.279Z,15.42
2022-09-23T09:14:24.817Z,15.51
2022-09-23T09:17:00.574Z,15.73
2022-09-23T09:19:40.693Z,15.31
2022-09-23T09:22:16.094Z,15.71
2022-09-23T09:24:46.235Z,15.60
2022-09-23T09:27:13.369Z,15.73
2022-09-23T09:29:46.251Z,15.75
2022-09-23T09:32:46.340Z,15.73
2022-09-23T09:35:26.845Z,15.76
2022-09-23T09:37:53.756Z,15.70
2022-09-23T09:40:20.750Z,16.21
2022-09-23T09:42:50.309Z,16.23
2022-09-23T09:45:41.017Z,16.24
2022-09-23T09:48:17.959Z,16.58
2022-09-23T09:50:44.472Z,16.79
2022-09-23T09:53:27.960Z,16.74
2022-09-23T09:56:11.048Z,17.10
2022-09-23T09:58:50.548Z,17.36
2022-09-23T10:01:33.997Z,17.00
2022-09-23T10:04:19.844Z,16.94
2022-09-23T10:07:05.976Z,17.00
2022-09-23T10:09:37.311Z,17.02
2022-09-23T10:12:15.617Z,17.16
2022-09-23T10:14:43.698Z,16.78
2022-09-23T10:17:28.102Z,17.09
2022-09-23T10:20:00.934Z,17.14
2022-09-23T10:22:33.322Z,17.32
2022-09-23T10:25:08.924Z,17.17
2022-09-23T10:27:37.152Z,17.53
2022-09-23T10:30:21.694Z,16.94
2022-09-23T10:32:49.054Z,16.82
2022-09-23T10:35:24.521Z,16.60
2022-09-23T10:38:00.656Z,17.27
2022-09-23T10:40:49.185Z,17.42
2022-09-23T10:43:38.670Z,17.27
2022-09-23T10:46:41.492Z,17.60
2022-09-23T10:49:20.179Z,17.39
2022-09-23T10:51:57.420Z,17.52
2022-09-23T10:54:51.346Z,17.52
2022-09-23T10:57:42.799Z,17.84
2022-09-23T11:00:30.580Z,18.01
2022-09-23T11:03:12.440Z,17.71
2022-09-23T11:05:57.925Z,18.16
2022-09-23T11:08:36.430Z,18.36
2022-09-23T11:11:40.598Z,17.84
2022-09-23T11:14:17.212Z,18.09
2022-09-23T11:17:16.420Z,18.15
2022-09-23T11:20:09.560Z,17.97
2022-09-23T11:22:49.725Z,18.08
2022-09-23T11:25:31.468Z,18.22
2022-09-23T11:28:25.642Z,18.53
2022-09-23T11:31:07.558Z,18.26
2022-09-23T11:33:53.058Z,17.85
2022-09-23T11:36:44.059Z,17.92
2022-09-23T11:39:19.970Z,18.20
2022-09-23T11:41:50.016Z,17.97
2022-09-23T11:44:28.439Z,18.06
2022-09-23T11:47:19.639Z,17.80
2022-09-23T11:50:03.094Z,17.67
2022-09-23T11:52:33.161Z,18.02
2022-09-23T11:55:22.939Z,18.16
2022-09-23T11:58:24.441Z,17.93
2022-09-23T12:01:30.889Z,18.33
2022-09-23T12:04:19.914Z,17.93
2022-09-23T12:06:55.323Z,17.98
2022-09-23T12:10:03.172Z,17.75
2022-09-23T12:12:34.508Z,17.65
2022-09-23T12:15:06.647Z,17.58
2022-09-23T12:17:45.067Z,17.61
2022-09-23T12:20:11.668Z,17.82
2022-09-23T12:23:13.343Z,17.84
2022-09-23T12:25:58.709Z,17.97
2022-09-23T12:28:38.360Z,17.85
2022-09-23T12:31:10.281Z,17.98
2022-09-23T12:33:38.728Z,18.05
2022-09-23T12:36:06.907Z,17.88
2022-09-23T12:39:02.641Z,17.78
2022-09-23T12:41:41.499Z,18.07
2022-09-23T12:44:11.110Z,18.16
2022-09-23T12:46:38.699Z,17.77
2022-09-23T12:49:21.397Z,17.90
2022-09-23T12:52:13.555Z,17.88
2022-09-23T12:54:41.452Z,18.06
2022-09-23T12:57:11.933Z,18.04
2022-09-23T12:59:58.608Z,17.87
2022-09-23T13:02:33.173Z,17.55
2022-09-23T13:05:27.686Z,17.90
2022-09-23T13:08:06.689Z,17.90
2022-09-23T13:11:03.581Z,17.95
2022-09-23T13:13:38.558Z,17.98
2022-09-23T13:16:21.886Z,17.77
2022-09-23T13:19:03.264Z,18.35
2022-09-23T13:21:45.841Z,17.95
2022-09-23T13:24:25.017Z,18.21
2022-09-23T13:27:11.349Z,18.22
2022-09-23T13:30:01.422Z,18.02
2022-09-23T13:32:31.901Z,17.99
2022-09-23T13:35:15.729Z,17.87
2022-09-23T13:37:49.897Z,17.78
2022-09-23T13:40:27.258Z,17.75
2022-09-23T13:43:29.377Z,17.90
2022-09-23T13:45:56.011Z,17.85
2022-09-23T13:48:25.670Z,17.79
2022-09-23T13:50:56.231Z,17.85
2022-09-23T13:53:31.401Z,17.79
2022-09-23T13:56:05.206Z,17.67
2022-09-23T13:58:33.511Z,17.64
2022-09-23T14:01:00.231Z,17.62
2022-09-23T14:03:38.974Z,17.62
2022-09-23T14:06:09.961Z,17.65
2022-09-23T14:08:40.307Z,17.69
2022-09-23T14:11:06.950Z,17.74
2022-09-23T14:13:43.078Z,17.39
2022-09-23T14:16:14.847Z,17.64
2022-09-23T14:18:45.465Z,17.46
2022-09-23T14:21:38.411Z,17.44
2022-09-23T14:24:14.254Z,17.39
2022-09-23T14:26:43.332Z,17.31
2022-09-23T14:29:20.064Z,17.22
2022-09-23T14:31:57.252Z,17.28
2022-09-23T14:34:43.015Z,17.39
2022-09-23T14:37:37.549Z,17.50
2022-09-23T14:40:11.048Z,17.45
2022-09-23T14:42:41.172Z,17.39
2022-09-23T14:45:14.190Z,17.17
2022-09-23T14:47:46.339Z,16.99
2022-09-23T14:50:47.121Z,16.80
2022-09-23T14:53:22.818Z,16.74
2022-09-23T14:55:58.519Z,16.62
2022-09-23T14:58:28.688Z,16.67
2022-09-23T15:00:59.573Z,16.70
2022-09-23T15:03:28.459Z,16.73
2022-09-23T15:06:08.298Z,16.69
2022-09-23T15:08:35.810Z,16.87
2022-09-23T15:11:08.053Z,16.86
2022-09-23T15:13:40.511Z,16.77
2022-09-23T15:16:07.779Z,16.90
2022-09-23T15:18:41.611Z,16.91
2022-09-23T15:21:18.483Z,17.15
2022-09-23T15:23:50.675Z,16.95
2022-09-23T15:26:22.910Z,16.81
2022-09-23T15:28:52.130Z,17.02
2022-09-23T15:31:25.607Z,16.98
2022-09-23T15:33:52.285Z,16.94
2022-09-23T15:36:25.936Z,16.82
2022-09-23T15:38:53.262Z,16.90
2022-09-23T15:41:20.000Z,17.00
2022-09-23T15:43:47.183Z,16.94
2022-09-23T15:46:28.227Z,16.68
2022-09-23T15:49:00.120Z,16.89
2022-09-23T15:51:28.242Z,16.70
2022-09-23T15:53:56.349Z,16.71
2022-09-23T15:56:29.047Z,16.57
2022-09-23T15:58:55.641Z,16.45
2022-09-23T16:01:31.679Z,16.43
2022-09-23T16:04:01.145Z,16.61
2022-09-23T16:06:28.013Z,16.42
2022-09-23T16:08:55.289Z,16.57
2022-09-23T16:11:24.919Z,16.36
2022-09-23T16:13:51.838Z,16.33
2022-09-23T16:16:22.146Z,16.23
2022-09-23T16:18:51.175Z,16.00
2022-09-23T16:21:25.779Z,16.00
2022-09-23T16:23:54.477Z,16.06
2022-09-23T16:26:30.236Z,16.08
2022-09-23T16:28:58.437Z,16.14
2022-09-23T16:31:26.720Z,16.13
2022-09-23T16:33:53.732Z,16.11
2022-09-23T16:36:27.722Z,16.00
2022-09-23T16:38:55.713Z,15.94
2022-09-23T16:41:23.582Z,15.78
2022-09-23T16:43:53.629Z,15.78
2022-09-23T16:46:21.229Z,15.58
2022-09-23T16:48:52.368Z,15.71
2022-09-23T16:51:23.143Z,15.64
2022-09-23T16:53:51.288Z,15.49
2022-09-23T16:56:27.226Z,15.43
2022-09-23T16:58:55.580Z,15.39
2022-09-23T17:01:45.987Z,15.37
2022-09-23T17:04:13.905Z,15.23
2022-09-23T17:06:44.624Z,15.12
2022-09-23T17:09:11.469Z,15.18
2022-09-23T17:11:41.390Z,15.15
2022-09-23T17:14:08.085Z,15.05
2022-09-23T17:16:35.243Z,14.98
2022-09-23T17:19:10.401Z,15.20
2022-09-23T17:21:37.492Z,15.07
2022-09-23T17:24:04.781Z,15.03
2022-09-23T17:26:31.576Z,14.92
2022-09-23T17:28:59.434Z,14.86
2022-09-23T17:31:26.240Z,14.86
2022-09-23T17:33:53.083Z,14.72
2022-09-23T17:36:20.991Z,14.67
2022-09-23T17:38:48.833Z,14.53
2022-09-23T17:41:15.965Z,14.48
2022-09-23T17:43:42.490Z,14.43
2022-09-23T17:46:11.268Z,14.33
2022-09-23T17:48:39.701Z,14.34
2022-09-23T17:51:09.812Z,14.23
2022-09-23T17:53:38.632Z,14.36
2022-09-23T17:56:17.468Z,14.36
2022-09-23T17:58:45.174Z,14.23
2022-09-23T18:01:17.869Z,14.37
2022-09-23T18:03:45.213Z,14.27
2022-09-23T18:06:13.261Z,14.27
2022-09-23T18:08:41.787Z,14.22
2022-09-23T18:11:13.334Z,14.31
2022-09-23T18:13:39.971Z,14.40
2022-09-23T18:16:06.904Z,14.27
2022-09-23T18:18:33.580Z,14.33
2022-09-23T18:21:01.722Z,14.28
2022-09-23T18:23:28.774Z,14.27
2022-09-23T18:25:55.912Z,14.38
2022-09-23T18:28:22.646Z,14.31
2022-09-23T18:30:56.769Z,14.17
2022-09-23T18:33:24.355Z,14.24
2022-09-23T18:35:54.518Z,14.26
2022-09-23T18:38:21.148Z,14.21
2022-09-23T18:40:56.818Z,14.29
2022-09-23T18:43:25.857Z,14.15
2022-09-23T18:46:01.084Z,14.14
2022-09-23T18:48:47.664Z,14.12
2022-09-23T18:51:15.233Z,14.09
2022-09-23T18:53:42.003Z,14.05
2022-09-23T18:56:12.709Z,14.07
2022-09-23T18:58:39.805Z,14.07
2022-09-23T19:01:09.467Z,14.18
2022-09-23T19:03:37.282Z,14.07
2022-09-23T19:06:06.870Z,14.12
2022-09-23T19:08:34.184Z,14.01
2022-09-23T19:11:05.162Z,14.07
2022-09-23T19:13:33.371Z,13.95
2022-09-23T19:16:04.147Z,13.85
2022-09-23T19:18:31.748Z,13.90
2022-09-23T19:21:06.815Z,14.06
2022-09-23T19:23:37.561Z,13.98
2022-09-23T19:26:05.344Z,13.97
2022-09-23T19:28:32.206Z,14.01
2022-09-23T19:31:09.804Z,13.98
2022-09-23T19:33:37.359Z,13.93
2022-09-23T19:36:04.514Z,13.98
2022-09-23T19:38:31.086Z,13.92
2022-09-23T19:40:57.888Z,13.85
2022-09-23T19:43:25.242Z,13.77
2022-09-23T19:45:55.113Z,13.83
2022-09-23T19:48:21.760Z,13.89
2022-09-23T19:50:48.984Z,13.80
2022-09-23T19:53:15.551Z,13.87
2022-09-23T19:55:44.288Z,13.80
2022-09-23T19:58:11.022Z,13.75
2022-09-23T20:00:37.617Z,13.82
2022-09-23T20:03:04.402Z,13.92
2022-09-23T20:05:30.997Z,13.83
2022-09-23T20:07:59.199Z,13.89
2022-09-23T20:10:26.227Z,13.77
2022-09-23T20:12:53.188Z,13.72
2022-09-23T20:15:19.780Z,13.72
2022-09-23T20:17:46.302Z,13.62
2022-09-23T20:20:13.809Z,13.56
2022-09-23T20:22:40.383Z,13.59
2022-09-23T20:25:12.938Z,13.43
2022-09-23T20:27:40.524Z,13.36
2022-09-23T20:30:07.905Z,13.46
2022-09-23T20:32:36.693Z,13.41
2022-09-23T20:35:04.222Z,13.30
2022-09-23T20:37:33.040Z,13.47
2022-09-23T20:40:00.173Z,13.39
2022-09-23T20:42:27.018Z,13.39
2022-09-23T20:44:54.912Z,13.43
2022-09-23T20:47:24.236Z,13.16
2022-09-23T20:49:50.995Z,13.17
2022-09-23T20:52:18.135Z,13.01
2022-09-23T20:54:44.956Z,13.04
2022-09-23T20:57:13.428Z,13.07
2022-09-23T20:59:40.693Z,13.05
2022-09-23T21:02:08.092Z,13.06
2022-09-23T21:04:35.006Z,13.02
2022-09-23T21:07:01.573Z,13.01
2022-09-23T21:09:31.136Z,12.94
2022-09-23T21:11:58.061Z,12.87
2022-09-23T21:14:24.630Z,12.92
2022-09-23T21:16:52.791Z,12.89
2022-09-23T21:19:19.610Z,12.93
2022-09-23T21:21:46.247Z,12.91
2022-09-23T21:24:40.062Z,12.78
2022-09-23T21:26:59.965Z,12.75
2022-09-23T21:29:26.528Z,12.78
2022-09-23T21:31:53.118Z,12.92
2022-09-23T21:34:19.921Z,12.81
2022-09-23T21:36:48.113Z,12.86
2022-09-23T21:39:15.043Z,12.70
2022-09-23T21:41:42.460Z,12.71
2022-09-23T21:44:09.096Z,12.83
2022-09-23T21:46:36.375Z,12.80
2022-09-23T21:49:04.103Z,12.78
2022-09-23T21:51:37.598Z,12.74
2022-09-23T21:54:05.704Z,12.70
2022-09-23T21:56:35.356Z,12.74
2022-09-23T21:59:02.556Z,12.70
2022-09-23T22:01:33.267Z,12.57
2022-09-23T22:04:05.183Z,12.53
2022-09-23T22:06:32.144Z,12.55
2022-09-23T22:09:01.348Z,12.56
2022-09-23T22:11:50.216Z,12.55
2022-09-23T22:14:19.101Z,12.49
2022-09-23T22:16:46.974Z,12.67
2022-09-23T22:19:15.068Z,12.71
2022-09-23T22:21:44.851Z,12.55
2022-09-23T22:24:12.512Z,12.52
2022-09-23T22:26:41.637Z,12.49
2022-09-23T22:29:28.728Z,12.60
2022-09-23T22:32:14.302Z,12.57
2022-09-23T22:34:53.174Z,12.57
2022-09-23T22:37:25.714Z,12.75
2022-09-23T22:39:52.331Z,12.66
2022-09-23T22:42:21.259Z,12.56
2022-09-23T22:44:48.782Z,12.62
2022-09-23T22:47:17.569Z,12.54
2022-09-23T22:49:44.135Z,12.44
2022-09-23T22:52:11.398Z,12.54
2022-09-23T22:54:38.588Z,12.44
2022-09-23T22:57:06.899Z,12.50
2022-09-23T22:59:33.736Z,12.54
2022-09-23T23:02:02.389Z,12.49
2022-09-23T23:04:30.065Z,12.58
2022-09-23T23:06:58.719Z,12.49
2022-09-23T23:09:25.351Z,12.46
2022-09-23T23:11:51.926Z,12.50
2022-09-23T23:14:18.961Z,12.50
2022-09-23T23:16:46.267Z,12.35
2022-09-23T23:19:16.552Z,12.48
2022-09-23T23:21:43.913Z,12.31
2022-09-23T23:24:15.543Z,12.20
2022-09-23T23:26:42.615Z,12.30
2022-09-23T23:29:11.779Z,12.37
2022-09-23T23:31:38.938Z,12.35
2022-09-23T23:34:08.389Z,12.20
2022-09-23T23:36:35.000Z,12.33
2022-09-23T23:39:01.614Z,12.41
2022-09-23T23:41:28.857Z,12.45
2022-09-23T23:44:01.099Z,12.39
2022-09-23T23:46:30.692Z,12.43
2022-09-23T23:48:58.843Z,12.44
2022-09-23T23:51:26.971Z,12.56
2022-09-23T23:53:57.050Z,12.55
2022-09-23T23:56:24.973Z,12.45
2022-09-23T23:58:58.839Z,12.45
